createdAt,value
2022-08-03T00:00:11.799Z,50.852703
2022-08-03T00:01:11.796Z,50.852623
2022-08-03T00:02:11.793Z,50.852657
2022-08-03T00:03:11.809Z,50.852707
2022-08-03T00:04:11.771Z,50.852722
2022-08-03T00:05:11.754Z,50.852703
2022-08-03T00:06:11.748Z,50.852688
2022-08-03T00:07:11.774Z,50.852634
2022-08-03T00:08:11.736Z,50.852592
2022-08-03T00:09:11.738Z,50.852581
2022-08-03T00:10:11.726Z,50.852474
2022-08-03T00:11:11.716Z,50.852524
2022-08-03T00:12:11.701Z,50.852524
2022-08-03T00:13:11.719Z,50.852695
2022-08-03T00:14:11.691Z,50.852699
2022-08-03T00:15:16.491Z,50.852673
2022-08-03T00:16:12.679Z,50.852638
2022-08-03T00:17:11.674Z,50.852707
2022-08-03T00:18:11.665Z,50.852703
2022-08-03T00:19:11.678Z,50.852695
2022-08-03T00:20:11.663Z,50.852669
2022-08-03T00:21:11.646Z,50.852646
2022-08-03T00:22:11.632Z,50.852657
2022-08-03T00:23:11.630Z,50.852695
2022-08-03T00:24:11.621Z,50.852665
2022-08-03T00:25:11.632Z,50.852699
2022-08-03T00:26:11.610Z,50.852787
2022-08-03T00:27:11.612Z,50.852722
2022-08-03T00:28:12.597Z,50.852596
2022-08-03T00:29:11.607Z,50.852718
2022-08-03T00:30:11.614Z,50.852604
2022-08-03T00:31:13.445Z,50.852745
2022-08-03T00:32:11.615Z,50.852730
2022-08-03T00:33:11.556Z,50.852749
2022-08-03T00:34:11.565Z,50.852684
2022-08-03T00:35:18.275Z,50.852772
2022-08-03T00:36:12.538Z,50.852795
2022-08-03T00:37:11.534Z,50.852619
2022-08-03T00:38:11.542Z,50.852631
2022-08-03T00:39:11.515Z,50.852631
2022-08-03T00:40:11.505Z,50.852692
2022-08-03T00:41:11.494Z,50.852707
2022-08-03T00:42:11.492Z,50.852634
2022-08-03T00:43:11.488Z,50.852692
2022-08-03T00:44:11.496Z,50.852657
2022-08-03T00:45:11.473Z,50.852669
2022-08-03T00:46:11.477Z,50.852798
2022-08-03T00:47:11.459Z,50.852722
2022-08-03T00:48:32.185Z,50.852734
2022-08-03T00:49:12.509Z,50.852596
2022-08-03T00:50:11.425Z,50.852619
2022-08-03T00:51:11.422Z,50.852699
2022-08-03T00:52:11.421Z,50.852764
2022-08-03T00:53:11.445Z,50.852917
2022-08-03T00:54:11.403Z,50.852634
2022-08-03T00:55:11.394Z,50.852695
2022-08-03T00:56:11.423Z,50.852715
2022-08-03T00:57:11.391Z,50.852745
2022-08-03T00:58:11.378Z,50.852726
2022-08-03T00:59:11.390Z,50.852718
2022-08-03T01:00:11.360Z,50.852741
2022-08-03T01:01:11.439Z,50.852810
2022-08-03T01:02:11.343Z,50.852776
2022-08-03T01:03:11.347Z,50.852768
2022-08-03T01:04:11.358Z,50.852779
2022-08-03T01:05:11.327Z,50.852730
2022-08-03T01:06:11.310Z,50.852745
2022-08-03T01:07:11.328Z,50.852703
2022-08-03T01:08:11.299Z,50.852722
2022-08-03T01:09:11.297Z,50.852852
2022-08-03T01:10:11.311Z,50.852814
2022-08-03T01:11:11.289Z,50.852749
2022-08-03T01:12:11.271Z,50.852680
2022-08-03T01:14:00.961Z,50.852657
2022-08-03T01:14:18.745Z,50.852699
2022-08-03T01:15:12.276Z,50.852737
2022-08-03T01:16:11.268Z,50.852726
2022-08-03T01:17:11.262Z,50.852707
2022-08-03T01:18:11.238Z,50.852707
2022-08-03T01:19:11.229Z,50.852764
2022-08-03T01:20:11.218Z,50.852818
2022-08-03T01:21:11.226Z,50.852764
2022-08-03T01:22:11.206Z,50.852768
2022-08-03T01:23:11.196Z,50.852768
2022-08-03T01:24:11.186Z,50.852768
2022-08-03T01:25:11.185Z,50.852783
2022-08-03T01:26:11.187Z,50.852806
2022-08-03T01:27:11.193Z,50.852726
2022-08-03T01:28:11.385Z,50.852795
2022-08-03T01:29:11.154Z,50.852779
2022-08-03T01:30:11.165Z,50.852703
2022-08-03T01:31:11.161Z,50.852718
2022-08-03T01:32:59.859Z,50.852718
2022-08-03T01:33:12.121Z,50.852703
2022-08-03T01:34:12.219Z,50.852715
2022-08-03T01:35:11.110Z,50.852802
2022-08-03T01:36:11.127Z,50.852715
2022-08-03T01:37:11.098Z,50.852730
2022-08-03T01:38:11.089Z,50.852737
2022-08-03T01:39:11.084Z,50.852688
2022-08-03T01:40:11.075Z,50.852757
2022-08-03T01:41:11.096Z,50.852787
2022-08-03T01:42:11.072Z,50.852814
2022-08-03T01:43:11.049Z,50.852806
2022-08-03T01:44:29.713Z,50.852905
2022-08-03T01:45:12.050Z,50.852829
2022-08-03T01:46:11.021Z,50.852894
2022-08-03T01:47:11.042Z,50.852821
2022-08-03T01:48:11.018Z,50.852871
2022-08-03T01:49:11.055Z,50.852730
2022-08-03T01:50:11.008Z,50.852760
2022-08-03T01:51:10.993Z,50.852768
2022-08-03T01:52:11.011Z,50.852783
2022-08-03T01:53:10.985Z,50.852715
2022-08-03T01:54:10.999Z,50.852749
2022-08-03T01:55:10.976Z,50.852745
2022-08-03T01:56:10.966Z,50.852783
2022-08-03T01:57:10.983Z,50.852657
2022-08-03T01:58:10.948Z,50.852684
2022-08-03T01:59:10.963Z,50.852783
2022-08-03T02:00:10.968Z,50.852764
2022-08-03T02:01:10.995Z,50.852798
2022-08-03T02:02:31.937Z,50.852753
2022-08-03T02:03:11.923Z,50.852592
2022-08-03T02:04:10.907Z,50.852825
2022-08-03T02:05:11.381Z,50.853062
2022-08-03T02:07:00.215Z,50.853062
2022-08-03T02:07:11.893Z,50.853062
2022-08-03T02:08:10.887Z,50.852795
2022-08-03T02:09:10.886Z,50.852772
2022-08-03T02:10:10.886Z,50.852764
2022-08-03T02:11:10.867Z,50.852798
2022-08-03T02:12:10.858Z,50.852798
2022-08-03T02:13:10.845Z,50.852798
2022-08-03T02:14:10.834Z,50.852715
2022-08-03T02:15:10.852Z,50.852764
2022-08-03T02:16:10.814Z,50.852844
2022-08-03T02:17:10.819Z,50.852879
2022-08-03T02:18:10.818Z,50.852711
2022-08-03T02:19:10.801Z,50.852734
2022-08-03T02:20:10.794Z,50.852818
2022-08-03T02:21:11.151Z,50.852844
2022-08-03T02:22:10.807Z,50.852818
2022-08-03T02:23:10.783Z,50.852818
2022-08-03T02:24:10.775Z,50.852757
2022-08-03T02:25:10.768Z,50.852745
2022-08-03T02:26:10.776Z,50.852844
2022-08-03T02:27:10.775Z,50.852676
2022-08-03T02:28:10.739Z,50.852772
2022-08-03T02:29:10.733Z,50.852783
2022-08-03T02:30:10.726Z,50.852760
2022-08-03T02:31:10.742Z,50.852741
2022-08-03T02:32:10.718Z,50.852772
2022-08-03T02:33:10.713Z,50.852795
2022-08-03T02:34:10.713Z,50.852798
2022-08-03T02:35:10.690Z,50.852745
2022-08-03T02:36:10.689Z,50.852779
2022-08-03T02:37:10.707Z,50.852699
2022-08-03T02:38:10.674Z,50.852825
2022-08-03T02:39:10.690Z,50.852753
2022-08-03T02:40:10.676Z,50.852818
2022-08-03T02:41:10.680Z,50.852829
2022-08-03T02:42:12.036Z,50.852776
2022-08-03T02:43:10.634Z,50.852787
2022-08-03T02:44:10.630Z,50.852825
2022-08-03T02:45:10.704Z,50.852711
2022-08-03T02:46:10.619Z,50.852875
2022-08-03T02:47:10.638Z,50.852726
2022-08-03T02:48:10.618Z,50.852688
2022-08-03T02:49:40.729Z,50.852612
2022-08-03T02:50:11.670Z,50.852665
2022-08-03T02:51:10.580Z,50.852734
2022-08-03T02:52:12.574Z,50.852703
2022-08-03T02:53:10.582Z,50.852604
2022-08-03T02:54:10.564Z,50.852787
2022-08-03T02:55:10.550Z,50.852791
2022-08-03T02:56:10.538Z,50.852837
2022-08-03T02:57:10.529Z,50.852818
2022-08-03T02:58:10.549Z,50.852726
2022-08-03T02:59:10.543Z,50.852825
2022-08-03T03:00:10.513Z,50.852768
2022-08-03T03:01:10.583Z,50.852726
2022-08-03T03:02:10.530Z,50.852669
2022-08-03T03:03:10.510Z,50.852722
2022-08-03T03:04:10.488Z,50.852669
2022-08-03T03:05:55.137Z,50.852673
2022-08-03T03:06:11.471Z,50.852772
2022-08-03T03:07:10.471Z,50.852684
2022-08-03T03:08:17.634Z,50.852650
2022-08-03T03:09:10.457Z,50.852665
2022-08-03T03:10:10.436Z,50.852661
2022-08-03T03:11:10.472Z,50.852425
2022-08-03T03:12:10.434Z,50.852627
2022-08-03T03:13:10.420Z,50.852802
2022-08-03T03:14:10.416Z,50.852551
2022-08-03T03:15:10.411Z,50.852581
2022-08-03T03:16:10.395Z,50.852627
2022-08-03T03:17:10.413Z,50.852840
2022-08-03T03:18:10.381Z,50.852776
2022-08-03T03:19:10.383Z,50.852875
2022-08-03T03:20:10.370Z,50.852634
2022-08-03T03:21:10.366Z,50.852966
2022-08-03T03:22:10.416Z,50.852997
2022-08-03T03:23:10.353Z,50.852692
2022-08-03T03:24:10.341Z,50.852654
2022-08-03T03:25:10.345Z,50.852749
2022-08-03T03:26:10.328Z,50.852749
2022-08-03T03:27:10.329Z,50.852898
2022-08-03T03:28:10.338Z,50.852890
2022-08-03T03:29:10.303Z,50.853573
2022-08-03T03:30:10.293Z,50.853344
2022-08-03T03:31:10.297Z,50.852985
2022-08-03T03:32:10.302Z,50.853207
2022-08-03T03:33:10.283Z,50.852924
2022-08-03T03:34:10.288Z,50.852642
2022-08-03T03:35:10.258Z,50.852669
2022-08-03T03:36:10.255Z,50.852757
2022-08-03T03:37:10.252Z,50.852646
2022-08-03T03:38:10.248Z,50.852814
2022-08-03T03:39:15.150Z,50.852825
2022-08-03T03:40:11.223Z,50.852776
2022-08-03T03:41:10.226Z,50.852764
2022-08-03T03:42:10.224Z,50.852829
2022-08-03T03:43:10.209Z,50.852837
2022-08-03T03:44:10.202Z,50.852825
2022-08-03T03:45:10.211Z,50.852764
2022-08-03T03:46:10.191Z,50.852810
2022-08-03T03:47:10.177Z,50.852726
2022-08-03T03:48:10.174Z,50.852722
2022-08-03T03:49:10.246Z,50.852699
2022-08-03T03:50:10.149Z,50.852737
2022-08-03T03:51:10.142Z,50.852707
2022-08-03T03:52:10.143Z,50.852772
2022-08-03T03:53:10.132Z,50.852741
2022-08-03T03:54:10.122Z,50.852768
2022-08-03T03:55:10.126Z,50.852737
2022-08-03T03:56:10.098Z,50.852787
2022-08-03T03:57:10.095Z,50.852814
2022-08-03T03:58:10.093Z,50.852806
2022-08-03T03:59:10.100Z,50.852806
2022-08-03T04:00:10.079Z,50.852737
2022-08-03T04:01:10.124Z,50.852810
2022-08-03T04:02:10.120Z,50.852821
2022-08-03T04:03:10.057Z,50.852715
2022-08-03T04:04:10.058Z,50.852627
2022-08-03T04:05:10.038Z,50.852745
2022-08-03T04:06:10.037Z,50.852890
2022-08-03T04:07:10.031Z,50.852692
2022-08-03T04:08:10.037Z,50.852806
2022-08-03T04:09:10.005Z,50.852726
2022-08-03T04:10:14.703Z,50.852852
2022-08-03T04:11:09.984Z,50.852837
2022-08-03T04:12:10.068Z,50.852898
2022-08-03T04:13:09.964Z,50.852875
2022-08-03T04:14:09.995Z,50.852772
2022-08-03T04:15:09.953Z,50.852833
2022-08-03T04:16:09.948Z,50.852802
2022-08-03T04:17:09.958Z,50.852795
2022-08-03T04:18:09.941Z,50.852707
2022-08-03T04:19:09.931Z,50.852806
2022-08-03T04:20:09.919Z,50.852753
2022-08-03T04:21:09.908Z,50.852791
2022-08-03T04:22:09.972Z,50.852829
2022-08-03T04:23:15.725Z,50.852795
2022-08-03T04:24:10.879Z,50.852783
2022-08-03T04:25:09.886Z,50.852734
2022-08-03T04:26:09.902Z,50.852688
2022-08-03T04:27:09.861Z,50.852776
2022-08-03T04:28:29.777Z,50.852779
2022-08-03T04:29:10.847Z,50.852772
2022-08-03T04:30:09.835Z,50.852905
2022-08-03T04:31:09.842Z,50.852795
2022-08-03T04:32:09.907Z,50.852791
2022-08-03T04:33:09.818Z,50.852688
2022-08-03T04:34:09.834Z,50.852757
2022-08-03T04:35:09.829Z,50.852848
2022-08-03T04:36:09.792Z,50.852806
2022-08-03T04:37:09.789Z,50.852749
2022-08-03T04:38:09.779Z,50.852821
2022-08-03T04:39:09.771Z,50.852879
2022-08-03T04:40:09.756Z,50.852791
2022-08-03T04:41:09.775Z,50.852787
2022-08-03T04:42:09.751Z,50.852787
2022-08-03T04:43:09.750Z,50.852737
2022-08-03T04:44:09.735Z,50.852718
2022-08-03T04:45:09.727Z,50.852757
2022-08-03T04:46:09.715Z,50.852787
2022-08-03T04:47:09.739Z,50.852749
2022-08-03T04:48:09.703Z,50.852856
2022-08-03T04:49:09.723Z,50.852898
2022-08-03T04:50:12.917Z,50.852791
2022-08-03T04:51:09.683Z,50.852837
2022-08-03T04:52:09.739Z,50.852779
2022-08-03T04:53:09.683Z,50.852798
2022-08-03T04:54:09.661Z,50.852768
2022-08-03T04:55:09.654Z,50.852798
2022-08-03T04:56:09.644Z,50.852718
2022-08-03T04:57:09.756Z,50.852745
2022-08-03T04:58:09.627Z,50.852692
2022-08-03T04:59:09.645Z,50.852680
2022-08-03T05:00:09.622Z,50.852829
2022-08-03T05:01:09.607Z,50.852829
2022-08-03T05:02:09.779Z,50.852768
2022-08-03T05:03:20.347Z,50.852730
2022-08-03T05:04:10.609Z,50.852753
2022-08-03T05:05:09.584Z,50.852859
2022-08-03T05:06:11.400Z,50.852730
2022-08-03T05:07:12.303Z,50.852802
2022-08-03T05:08:11.185Z,50.852764
2022-08-03T05:09:09.584Z,50.852734
2022-08-03T05:10:15.911Z,50.852757
2022-08-03T05:11:10.547Z,50.852749
2022-08-03T05:12:09.593Z,50.852726
2022-08-03T05:13:09.533Z,50.852757
2022-08-03T05:14:09.521Z,50.852734
2022-08-03T05:15:09.534Z,50.852772
2022-08-03T05:16:09.511Z,50.852760
2022-08-03T05:17:09.509Z,50.852791
2022-08-03T05:18:13.666Z,50.852787
2022-08-03T05:19:09.505Z,50.852753
2022-08-03T05:20:09.487Z,50.852776
2022-08-03T05:21:09.493Z,50.852695
2022-08-03T05:22:09.540Z,50.852711
2022-08-03T05:23:09.466Z,50.852707
2022-08-03T05:24:09.452Z,50.852703
2022-08-03T05:25:09.458Z,50.852737
2022-08-03T05:26:10.501Z,50.852734
2022-08-03T05:27:09.454Z,50.852749
2022-08-03T05:28:09.431Z,50.852730
2022-08-03T05:29:09.429Z,50.852703
2022-08-03T05:30:30.885Z,50.852715
2022-08-03T05:31:10.433Z,50.852718
2022-08-03T05:32:09.447Z,50.852642
2022-08-03T05:33:09.401Z,50.852772
2022-08-03T05:34:09.395Z,50.852783
2022-08-03T05:36:00.849Z,50.852654
2022-08-03T05:36:10.380Z,50.852791
2022-08-03T05:37:09.396Z,50.851559
2022-08-03T05:38:09.370Z,50.851734
2022-08-03T05:39:09.363Z,50.851624
2022-08-03T05:40:09.346Z,50.851604
2022-08-03T05:41:22.442Z,50.851604
2022-08-03T05:42:09.393Z,50.851604
2022-08-03T05:43:09.348Z,50.851604
2022-08-03T05:44:09.356Z,50.852764
2022-08-03T05:45:09.320Z,50.852810
2022-08-03T05:46:13.049Z,50.852810
2022-08-03T05:47:09.305Z,50.852810
2022-08-03T05:48:09.300Z,50.852791
2022-08-03T05:49:09.363Z,50.852684
2022-08-03T05:50:09.283Z,50.852852
2022-08-03T05:51:09.283Z,50.852863
2022-08-03T05:52:12.947Z,50.852787
2022-08-03T05:53:10.265Z,50.852848
2022-08-03T05:54:09.257Z,50.852570
2022-08-03T05:55:09.253Z,50.852642
2022-08-03T05:56:13.601Z,50.852695
2022-08-03T05:57:10.265Z,50.852673
2022-08-03T05:58:09.240Z,50.852650
2022-08-03T05:59:35.898Z,50.852650
2022-08-03T06:00:10.222Z,50.852623
2022-08-03T06:01:09.238Z,50.852715
2022-08-03T06:02:09.257Z,50.852665
2022-08-03T06:03:09.204Z,50.852669
2022-08-03T06:04:09.189Z,50.852665
2022-08-03T06:05:09.185Z,50.852650
2022-08-03T06:06:09.195Z,50.852718
2022-08-03T06:07:09.192Z,50.852821
2022-08-03T06:08:09.184Z,50.852802
2022-08-03T06:09:09.154Z,50.852829
2022-08-03T06:10:35.257Z,50.852718
2022-08-03T06:11:10.143Z,50.852741
2022-08-03T06:12:12.397Z,50.852901
2022-08-03T06:13:10.190Z,50.852840
2022-08-03T06:14:09.119Z,50.852760
2022-08-03T06:15:11.318Z,50.852730
2022-08-03T06:16:09.115Z,50.852566
2022-08-03T06:17:09.109Z,50.852779
2022-08-03T06:18:09.089Z,50.852844
2022-08-03T06:19:09.103Z,50.852795
2022-08-03T06:20:09.077Z,50.852814
2022-08-03T06:21:14.316Z,50.852776
2022-08-03T06:22:09.064Z,50.852753
2022-08-03T06:23:15.937Z,50.852657
2022-08-03T06:24:10.082Z,50.852795
2022-08-03T06:25:12.671Z,50.852657
2022-08-03T06:26:09.038Z,50.852612
2022-08-03T06:27:09.039Z,50.852737
2022-08-03T06:28:15.024Z,50.852783
2022-08-03T06:29:10.054Z,50.852871
2022-08-03T06:30:09.044Z,50.852814
2022-08-03T06:31:09.005Z,50.852917
2022-08-03T06:32:09.005Z,50.852814
2022-08-03T06:33:09.010Z,50.852730
2022-08-03T06:34:33.790Z,50.852726
2022-08-03T06:35:10.016Z,50.852749
2022-08-03T06:36:08.974Z,50.852707
2022-08-03T06:37:08.978Z,50.852806
2022-08-03T06:38:08.964Z,50.852779
2022-08-03T06:39:08.962Z,50.852718
2022-08-03T06:40:08.948Z,50.852654
2022-08-03T06:41:08.972Z,50.852779
2022-08-03T06:42:09.856Z,50.852768
2022-08-03T06:43:12.553Z,50.852757
2022-08-03T06:44:08.929Z,50.852680
2022-08-03T06:45:08.917Z,50.852772
2022-08-03T06:46:08.920Z,50.852688
2022-08-03T06:47:08.926Z,50.852623
2022-08-03T06:48:08.910Z,50.852703
2022-08-03T06:49:08.956Z,50.852699
2022-08-03T06:50:16.539Z,50.852741
2022-08-03T06:51:09.890Z,50.852669
2022-08-03T06:52:08.876Z,50.852718
2022-08-03T06:53:08.863Z,50.852657
2022-08-03T06:54:08.880Z,50.852749
2022-08-03T06:55:08.867Z,50.852776
2022-08-03T06:56:08.852Z,50.852646
2022-08-03T06:57:08.847Z,50.852646
2022-08-03T06:58:08.837Z,50.852634
2022-08-03T06:59:08.826Z,50.852802
2022-08-03T07:00:12.307Z,50.852699
2022-08-03T07:01:08.855Z,50.852703
2022-08-03T07:02:08.819Z,50.852764
2022-08-03T07:03:08.820Z,50.852699
2022-08-03T07:04:08.808Z,50.852791
2022-08-03T07:05:08.810Z,50.852985
2022-08-03T07:06:08.778Z,50.852917
2022-08-03T07:07:08.790Z,50.852852
2022-08-03T07:08:08.781Z,50.852753
2022-08-03T07:09:08.767Z,50.852749
2022-08-03T07:10:08.778Z,50.852745
2022-08-03T07:11:08.762Z,50.852852
2022-08-03T07:12:08.753Z,50.852818
2022-08-03T07:13:08.752Z,50.852814
2022-08-03T07:14:08.752Z,50.852829
2022-08-03T07:15:08.774Z,50.852692
2022-08-03T07:16:13.905Z,50.852631
2022-08-03T07:17:11.689Z,50.852749
2022-08-03T07:18:08.713Z,50.852806
2022-08-03T07:19:08.708Z,50.852818
2022-08-03T07:20:08.710Z,50.852776
2022-08-03T07:21:08.773Z,50.852894
2022-08-03T07:22:08.683Z,50.852665
2022-08-03T07:23:08.692Z,50.852737
2022-08-03T07:24:08.678Z,50.852741
2022-08-03T07:25:08.656Z,50.852783
2022-08-03T07:26:08.658Z,50.852734
2022-08-03T07:27:08.675Z,50.852760
2022-08-03T07:28:08.644Z,50.852730
2022-08-03T07:29:14.875Z,50.852730
2022-08-03T07:30:08.627Z,50.852818
2022-08-03T07:31:08.617Z,50.852848
2022-08-03T07:32:08.631Z,50.852840
2022-08-03T07:33:08.625Z,50.852814
2022-08-03T07:34:08.599Z,50.852650
2022-08-03T07:35:08.768Z,50.852676
2022-08-03T07:36:08.574Z,50.852787
2022-08-03T07:37:08.622Z,50.852806
2022-08-03T07:38:08.574Z,50.852684
2022-08-03T07:39:17.566Z,50.852818
2022-08-03T07:40:09.556Z,50.852825
2022-08-03T07:41:08.550Z,50.852772
2022-08-03T07:42:08.580Z,50.852753
2022-08-03T07:43:08.563Z,50.852753
2022-08-03T07:44:08.536Z,50.852848
2022-08-03T07:45:08.519Z,50.852886
2022-08-03T07:46:08.533Z,50.852749
2022-08-03T07:47:09.147Z,50.852795
2022-08-03T07:48:12.104Z,50.852814
2022-08-03T07:49:08.563Z,50.852795
2022-08-03T07:50:08.878Z,50.852779
2022-08-03T07:51:08.499Z,50.852783
2022-08-03T07:52:08.468Z,50.852760
2022-08-03T07:53:08.467Z,50.852783
2022-08-03T07:54:08.478Z,50.852825
2022-08-03T07:55:08.458Z,50.852806
2022-08-03T07:56:11.219Z,50.852810
2022-08-03T07:57:08.468Z,50.852718
2022-08-03T07:58:08.444Z,50.852726
2022-08-03T07:59:08.454Z,50.852772
2022-08-03T08:00:08.425Z,50.852730
2022-08-03T08:01:08.446Z,50.852707
2022-08-03T08:02:08.436Z,50.852726
2022-08-03T08:03:08.411Z,50.852715
2022-08-03T08:04:08.401Z,50.852753
2022-08-03T08:05:08.421Z,50.852791
2022-08-03T08:06:08.390Z,50.852768
2022-08-03T08:07:08.381Z,50.852734
2022-08-03T08:08:08.382Z,50.852741
2022-08-03T08:09:08.370Z,50.852776
2022-08-03T08:10:08.387Z,50.852833
2022-08-03T08:11:08.360Z,50.852772
2022-08-03T08:12:14.906Z,50.852802
2022-08-03T08:13:09.338Z,50.852795
2022-08-03T08:14:08.335Z,50.852859
2022-08-03T08:15:08.326Z,50.852791
2022-08-03T08:16:08.349Z,50.852776
2022-08-03T08:17:08.345Z,50.852787
2022-08-03T08:18:08.301Z,50.852810
2022-08-03T08:19:08.314Z,50.852718
2022-08-03T08:20:08.285Z,50.852726
2022-08-03T08:21:08.709Z,50.852795
2022-08-03T08:22:08.274Z,50.852745
2022-08-03T08:23:19.989Z,50.852745
2022-08-03T08:24:11.441Z,50.852669
2022-08-03T08:25:09.250Z,50.852726
2022-08-03T08:26:08.237Z,50.852829
2022-08-03T08:27:08.247Z,50.852753
2022-08-03T08:28:30.890Z,50.852783
2022-08-03T08:29:09.246Z,50.852818
2022-08-03T08:30:11.548Z,50.852787
2022-08-03T08:31:08.244Z,50.852814
2022-08-03T08:32:08.237Z,50.852840
2022-08-03T08:33:08.726Z,50.852814
2022-08-03T08:34:09.248Z,50.852810
2022-08-03T08:35:08.203Z,50.852783
2022-08-03T08:36:11.988Z,50.852821
2022-08-03T08:37:09.186Z,50.852932
2022-08-03T08:38:08.170Z,50.852848
2022-08-03T08:39:08.167Z,50.852859
2022-08-03T08:40:08.158Z,50.852707
2022-08-03T08:41:08.137Z,50.852787
2022-08-03T08:42:08.165Z,50.852726
2022-08-03T08:43:08.143Z,50.852848
2022-08-03T08:44:08.140Z,50.852921
2022-08-03T08:45:08.117Z,50.852665
2022-08-03T08:46:08.129Z,50.852928
2022-08-03T08:47:08.107Z,50.852875
2022-08-03T08:48:08.550Z,50.852814
2022-08-03T08:49:08.132Z,50.852829
2022-08-03T08:50:14.850Z,50.852890
2022-08-03T08:51:09.077Z,50.852825
2022-08-03T08:52:25.356Z,50.852776
2022-08-03T08:53:09.811Z,50.852757
2022-08-03T08:54:09.071Z,50.852810
2022-08-03T08:55:08.049Z,50.852867
2022-08-03T08:56:08.075Z,50.852760
2022-08-03T08:57:21.258Z,50.852772
2022-08-03T08:58:09.028Z,50.852821
2022-08-03T08:59:08.029Z,50.852608
2022-08-03T09:00:08.022Z,50.852722
2022-08-03T09:01:08.087Z,50.852901
2022-08-03T09:02:08.007Z,50.852814
2022-08-03T09:03:08.003Z,50.852745
2022-08-03T09:04:08.000Z,50.852833
2022-08-03T09:05:08.010Z,50.852825
2022-08-03T09:06:07.999Z,50.852791
2022-08-03T09:07:19.661Z,50.852783
2022-08-03T09:08:08.954Z,50.852798
2022-08-03T09:09:07.996Z,50.852779
2022-08-03T09:10:12.712Z,50.852825
2022-08-03T09:11:08.948Z,50.852890
2022-08-03T09:12:35.290Z,50.852745
2022-08-03T09:13:08.936Z,50.852982
2022-08-03T09:14:07.935Z,50.852859
2022-08-03T09:15:17.033Z,50.852840
2022-08-03T09:16:08.916Z,50.852913
2022-08-03T09:17:07.901Z,50.852905
2022-08-03T09:18:07.895Z,50.852921
2022-08-03T09:19:07.892Z,50.853001
2022-08-03T09:20:07.889Z,50.852825
2022-08-03T09:21:29.652Z,50.852806
2022-08-03T09:22:08.907Z,50.852718
2022-08-03T09:23:24.939Z,50.852722
2022-08-03T09:24:16.519Z,50.852821
2022-08-03T09:25:23.780Z,50.852821
2022-08-03T09:26:09.155Z,50.852821
2022-08-03T09:27:07.853Z,50.852772
2022-08-03T09:28:07.842Z,50.852894
2022-08-03T09:29:13.153Z,50.852806
2022-08-03T09:30:19.000Z,50.852615
2022-08-03T09:31:07.822Z,50.852779
2022-08-03T09:32:07.844Z,50.852753
2022-08-03T09:33:08.373Z,50.852791
2022-08-03T09:34:07.793Z,50.852798
2022-08-03T09:35:09.481Z,50.852779
2022-08-03T09:36:07.776Z,50.852779
2022-08-03T09:37:07.775Z,50.852829
2022-08-03T09:38:12.637Z,50.852886
2022-08-03T09:39:08.763Z,50.852772
2022-08-03T09:40:08.384Z,50.852741
2022-08-03T09:41:07.765Z,50.852779
2022-08-03T09:42:07.743Z,50.852783
2022-08-03T09:43:07.745Z,50.852798
2022-08-03T09:44:07.724Z,50.852882
2022-08-03T09:45:07.754Z,50.852760
2022-08-03T09:46:07.791Z,50.852848
2022-08-03T09:47:07.720Z,50.852806
2022-08-03T09:48:07.709Z,50.852821
2022-08-03T09:49:07.763Z,50.852905
2022-08-03T09:50:07.690Z,50.852837
2022-08-03T09:51:14.207Z,50.852783
2022-08-03T09:52:31.765Z,50.852795
2022-08-03T09:53:08.681Z,50.852768
2022-08-03T09:54:13.534Z,50.852859
2022-08-03T09:55:23.394Z,50.852711
2022-08-03T09:56:36.006Z,50.852795
2022-08-03T09:57:08.662Z,50.852718
2022-08-03T09:58:07.642Z,50.852718
2022-08-03T09:59:07.667Z,50.852772
2022-08-03T10:00:08.468Z,50.852795
2022-08-03T10:01:07.687Z,50.852825
2022-08-03T10:02:08.636Z,50.852898
2022-08-03T10:03:07.617Z,50.852764
2022-08-03T10:04:07.598Z,50.852768
2022-08-03T10:05:07.607Z,50.852783
2022-08-03T10:06:07.598Z,50.852886
2022-08-03T10:07:07.596Z,50.852806
2022-08-03T10:08:07.613Z,50.852840
2022-08-03T10:09:07.565Z,50.852768
2022-08-03T10:10:29.925Z,50.852745
2022-08-03T10:11:07.555Z,50.852802
2022-08-03T10:12:07.544Z,50.852814
2022-08-03T10:13:07.545Z,50.852886
2022-08-03T10:14:07.551Z,50.852661
2022-08-03T10:15:07.537Z,50.852551
2022-08-03T10:16:21.971Z,50.852699
2022-08-03T10:17:08.520Z,50.852722
2022-08-03T10:18:07.503Z,50.852680
2022-08-03T10:19:07.528Z,50.852745
2022-08-03T10:20:07.490Z,50.852707
2022-08-03T10:21:07.520Z,50.852741
2022-08-03T10:22:07.486Z,50.852730
2022-08-03T10:23:07.472Z,50.852768
2022-08-03T10:24:07.456Z,50.852783
2022-08-03T10:25:07.497Z,50.852695
2022-08-03T10:26:07.447Z,50.852673
2022-08-03T10:27:07.486Z,50.852684
2022-08-03T10:28:07.435Z,50.852657
2022-08-03T10:29:07.441Z,50.852692
2022-08-03T10:30:07.432Z,50.852703
2022-08-03T10:31:07.457Z,50.852661
2022-08-03T10:32:07.416Z,50.852772
2022-08-03T10:33:15.308Z,50.852715
2022-08-03T10:34:08.431Z,50.852741
2022-08-03T10:35:19.114Z,50.852783
2022-08-03T10:36:08.433Z,50.852749
2022-08-03T10:37:07.405Z,50.852768
2022-08-03T10:38:07.402Z,50.852798
2022-08-03T10:39:16.110Z,50.852757
2022-08-03T10:40:07.368Z,50.852757
2022-08-03T10:41:07.351Z,50.852615
2022-08-03T10:42:13.506Z,50.852768
2022-08-03T10:43:07.369Z,50.852749
2022-08-03T10:44:07.332Z,50.852818
2022-08-03T10:45:07.326Z,50.852837
2022-08-03T10:46:07.322Z,50.852741
2022-08-03T10:47:07.333Z,50.852760
2022-08-03T10:48:07.307Z,50.852749
2022-08-03T10:49:07.390Z,50.852776
2022-08-03T10:50:07.287Z,50.852695
2022-08-03T10:51:07.283Z,50.852745
2022-08-03T10:52:13.382Z,50.852798
2022-08-03T10:53:07.272Z,50.852699
2022-08-03T10:54:07.274Z,50.852772
2022-08-03T10:55:07.824Z,50.852760
2022-08-03T10:56:07.243Z,50.852753
2022-08-03T10:57:14.490Z,50.852718
2022-08-03T10:58:11.258Z,50.852676
2022-08-03T10:59:08.768Z,50.852795
2022-08-03T11:00:07.447Z,50.852768
2022-08-03T11:01:07.269Z,50.852829
2022-08-03T11:02:07.235Z,50.852760
2022-08-03T11:03:07.270Z,50.852779
2022-08-03T11:04:11.046Z,50.852715
2022-08-03T11:05:07.197Z,50.852623
2022-08-03T11:06:07.195Z,50.852619
2022-08-03T11:07:07.190Z,50.852627
2022-08-03T11:08:07.182Z,50.852699
2022-08-03T11:09:07.185Z,50.852791
2022-08-03T11:10:10.497Z,50.852764
2022-08-03T11:11:07.193Z,50.852665
2022-08-03T11:12:07.149Z,50.852695
2022-08-03T11:13:07.177Z,50.852673
2022-08-03T11:14:07.139Z,50.852802
2022-08-03T11:15:07.284Z,50.852783
2022-08-03T11:16:10.915Z,50.852669
2022-08-03T11:17:07.131Z,50.852631
2022-08-03T11:18:11.536Z,50.852463
2022-08-03T11:19:07.129Z,50.852722
2022-08-03T11:20:07.097Z,50.852722
2022-08-03T11:21:07.101Z,50.852596
2022-08-03T11:22:07.083Z,50.852512
2022-08-03T11:23:07.081Z,50.852547
2022-08-03T11:24:07.249Z,50.852615